Time;durP1;ratioP1;P1;durP2;ratioP2;P2;SDS_P1;SDS_P2;PMS_P1;PMS_P2;Temp;Humidity;BMP_temperature;BMP_pressure;BME280_temperature;BME280_humidity;BME280_pressure;Samples;Min_cycle;Max_cycle;Signal;HPM_P1;HPM_P2
2023/09/20 00:00:13;;;;;;;3.60;1.00;;;;;;;;;;5052482;28;20417;-77
2023/09/20 00:02:43;;;;;;;2.87;0.30;;;;;;;;;;5053057;28;20417;-79
2023/09/20 00:05:14;;;;;;;4.07;0.50;;;;;;;;;;5053174;28;20447;-80
2023/09/20 00:07:41;;;;;;;4.27;0.80;;;;;;;;;;5053034;28;20410;-80
2023/09/20 00:10:12;;;;;;;7.00;0.77;;;;;;;;;;5052765;28;20461;-82
2023/09/20 00:12:38;;;;;;;3.37;1.00;;;;;;;;;;5052241;28;20481;-79
2023/09/20 00:15:04;;;;;;;1.80;0.80;;;;;;;;;;5052670;28;20739;-79
2023/09/20 00:17:33;;;;;;;4.10;0.53;;;;;;;;;;5052471;28;20454;-78
2023/09/20 00:20:06;;;;;;;1.37;0.87;;;;;;;;;;5052619;28;20750;-80
2023/09/20 00:22:32;;;;;;;2.30;0.30;;;;;;;;;;5052525;28;20419;-79
2023/09/20 00:24:59;;;;;;;2.93;0.30;;;;;;;;;;5052247;28;20768;-79
2023/09/20 00:27:25;;;;;;;5.47;0.70;;;;;;;;;;5052148;28;20427;-79
2023/09/20 00:29:51;;;;;;;3.10;0.70;;;;;;;;;;5052230;28;20409;-80
2023/09/20 00:32:17;;;;;;;4.10;0.60;;;;;;;;;;5052435;28;20563;-79
2023/09/20 00:34:43;;;;;;;2.93;0.73;;;;;;;;;;5051940;28;20182;-80
2023/09/20 00:37:09;;;;;;;4.07;0.70;;;;;;;;;;5051924;28;20467;-79
2023/09/20 00:39:36;;;;;;;4.63;0.60;;;;;;;;;;5050915;28;20466;-79
2023/09/20 00:42:02;;;;;;;6.87;2.30;;;;;;;;;;5052317;28;20426;-79
2023/09/20 00:44:28;;;;;;;4.43;0.77;;;;;;;;;;5051068;28;20518;-82
2023/09/20 00:46:55;;;;;;;2.00;0.40;;;;;;;;;;5052416;28;20997;-84
2023/09/20 00:49:21;;;;;;;5.70;0.60;;;;;;;;;;5052946;28;20443;-85
2023/09/20 00:51:48;;;;;;;4.20;0.60;;;;;;;;;;5052488;28;20973;-85
2023/09/20 00:54:16;;;;;;;2.30;0.70;;;;;;;;;;5051675;28;20267;-83
2023/09/20 00:56:42;;;;;;;3.93;0.63;;;;;;;;;;5052552;28;20406;-82
2023/09/20 00:59:09;;;;;;;4.80;0.67;;;;;;;;;;5053039;28;20752;-83
2023/09/20 01:01:36;;;;;;;4.20;1.00;;;;;;;;;;5052867;28;20474;-80
2023/09/20 01:04:02;;;;;;;2.00;0.60;;;;;;;;;;5051800;28;20508;-81
2023/09/20 01:06:28;;;;;;;2.73;0.40;;;;;;;;;;5052788;28;20417;-83
2023/09/20 01:08:55;;;;;;;2.50;0.53;;;;;;;;;;5052837;28;20398;-83
2023/09/20 01:11:21;;;;;;;4.10;0.70;;;;;;;;;;5052348;28;20227;-90
2023/09/20 01:13:47;;;;;;;4.10;0.97;;;;;;;;;;5052846;28;20425;-83
2023/09/20 01:16:15;;;;;;;3.33;0.73;;;;;;;;;;5052742;28;20407;-85
2023/09/20 01:18:44;;;;;;;3.80;0.50;;;;;;;;;;5051567;28;20418;-83
2023/09/20 01:21:11;;;;;;;2.63;0.33;;;;;;;;;;5052729;28;20401;-83
2023/09/20 01:23:38;;;;;;;3.87;0.50;;;;;;;;;;5052634;28;20402;-83
2023/09/20 01:26:04;;;;;;;1.80;0.57;;;;;;;;;;5050989;28;20429;-81
2023/09/20 01:28:30;;;;;;;3.17;0.70;;;;;;;;;;5052618;28;20417;-85
2023/09/20 01:30:58;;;;;;;4.23;0.77;;;;;;;;;;5052651;28;20801;-85
2023/09/20 01:33:25;;;;;;;3.90;1.07;;;;;;;;;;5052434;28;20481;-83
2023/09/20 01:35:51;;;;;;;2.27;0.50;;;;;;;;;;5052574;28;20401;-84
2023/09/20 01:38:17;;;;;;;2.60;0.40;;;;;;;;;;5034908;28;20440;-86
2023/09/20 01:40:46;;;;;;;4.20;1.50;;;;;;;;;;5052454;28;20418;-84
2023/09/20 01:43:13;;;;;;;3.83;0.80;;;;;;;;;;5052154;28;20179;-83
2023/09/20 01:45:42;;;;;;;4.87;1.30;;;;;;;;;;5052414;28;20414;-84
2023/09/20 01:48:10;;;;;;;3.77;0.73;;;;;;;;;;5052448;28;20405;-84
2023/09/20 01:50:36;;;;;;;5.37;0.57;;;;;;;;;;5052419;28;20406;-85
2023/09/20 01:53:08;;;;;;;4.90;0.87;;;;;;;;;;5054834;28;20564;-82
2023/09/20 01:55:37;;;;;;;3.57;0.57;;;;;;;;;;5056247;28;20418;-84
2023/09/20 01:58:05;;;;;;;6.73;1.60;;;;;;;;;;5055836;28;20425;-82
2023/09/20 02:00:36;;;;;;;4.10;0.73;;;;;;;;;;5056055;28;20411;-84
2023/09/20 02:03:09;;;;;;;1.30;0.50;;;;;;;;;;5055972;28;20421;-83
2023/09/20 02:05:38;;;;;;;3.67;0.73;;;;;;;;;;5056025;28;20499;-83
2023/09/20 02:08:05;;;;;;;2.40;0.80;;;;;;;;;;5055413;28;20490;-83
2023/09/20 02:10:31;;;;;;;3.47;0.80;;;;;;;;;;5055696;28;20933;-84
2023/09/20 02:12:58;;;;;;;2.00;0.73;;;;;;;;;;5055366;28;20477;-82
2023/09/20 02:15:25;;;;;;;4.87;0.40;;;;;;;;;;5054761;28;20763;-82
2023/09/20 02:17:52;;;;;;;2.63;0.70;;;;;;;;;;5055241;28;20446;-85
2023/09/20 02:20:23;;;;;;;3.67;0.97;;;;;;;;;;5055639;28;20410;-83
2023/09/20 02:22:50;;;;;;;2.90;0.80;;;;;;;;;;5054438;28;20446;-82
2023/09/20 02:25:20;;;;;;;5.70;0.97;;;;;;;;;;5055531;28;20402;-81
2023/09/20 02:27:50;;;;;;;6.00;0.67;;;;;;;;;;5054905;28;20446;-83
2023/09/20 02:30:16;;;;;;;2.97;0.97;;;;;;;;;;5055661;28;20410;-83
2023/09/20 02:32:42;;;;;;;6.23;0.80;;;;;;;;;;5055439;28;20879;-85
2023/09/20 02:35:09;;;;;;;2.60;0.93;;;;;;;;;;5054207;28;20522;-83
2023/09/20 02:37:35;;;;;;;3.70;0.93;;;;;;;;;;5053257;28;20430;-84
2023/09/20 02:40:09;;;;;;;2.60;0.60;;;;;;;;;;5055263;28;20477;-84
2023/09/20 02:42:44;;;;;;;4.13;1.27;;;;;;;;;;5053290;28;20426;-83
2023/09/20 02:45:11;;;;;;;4.63;0.80;;;;;;;;;;5055216;28;20417;-83
2023/09/20 02:47:36;;;;;;;3.33;0.80;;;;;;;;;;5053912;28;20525;-86
2023/09/20 02:50:04;;;;;;;2.93;0.67;;;;;;;;;;5055190;28;20493;-85
2023/09/20 02:52:33;;;;;;;8.03;0.90;;;;;;;;;;5055036;28;20489;-82
2023/09/20 02:55:00;;;;;;;1.90;0.90;;;;;;;;;;5055005;28;21020;-83
2023/09/20 02:57:26;;;;;;;4.40;0.90;;;;;;;;;;5054710;28;20417;-84
2023/09/20 02:59:52;;;;;;;3.43;0.60;;;;;;;;;;5053705;28;20526;-83
2023/09/20 03:02:19;;;;;;;4.40;0.80;;;;;;;;;;5054760;28;20254;-83
2023/09/20 03:04:45;;;;;;;5.40;0.70;;;;;;;;;;5053618;28;20179;-84
2023/09/20 03:07:11;;;;;;;2.83;0.83;;;;;;;;;;5053539;28;20763;-83
2023/09/20 03:09:37;;;;;;;4.23;0.80;;;;;;;;;;5054651;28;20217;-83
2023/09/20 03:12:06;;;;;;;2.10;0.50;;;;;;;;;;5054286;28;20462;-83
2023/09/20 03:14:38;;;;;;;3.17;0.50;;;;;;;;;;5054677;28;20802;-83
2023/09/20 03:17:05;;;;;;;4.80;0.90;;;;;;;;;;5054630;28;20413;-84
2023/09/20 03:19:34;;;;;;;2.00;0.70;;;;;;;;;;5054552;28;20921;-83
2023/09/20 03:22:01;;;;;;;3.10;0.60;;;;;;;;;;5054550;28;20416;-82
2023/09/20 03:24:27;;;;;;;4.13;1.30;;;;;;;;;;5054433;28;20405;-83
2023/09/20 03:26:54;;;;;;;4.73;0.90;;;;;;;;;;5054033;28;20411;-82
2023/09/20 03:29:20;;;;;;;2.70;0.87;;;;;;;;;;5054483;28;20890;-83
2023/09/20 03:31:48;;;;;;;4.70;1.40;;;;;;;;;;5053040;28;20484;-85
2023/09/20 03:34:14;;;;;;;7.60;2.20;;;;;;;;;;5054365;28;20920;-83
2023/09/20 03:36:41;;;;;;;6.10;1.20;;;;;;;;;;5054272;28;20417;-83
2023/09/20 03:39:11;;;;;;;3.27;0.93;;;;;;;;;;5054196;28;20404;-85
2023/09/20 03:41:38;;;;;;;7.30;0.87;;;;;;;;;;5054016;28;20426;-83
2023/09/20 03:44:04;;;;;;;4.33;1.03;;;;;;;;;;5054131;28;20403;-82
2023/09/20 03:46:32;;;;;;;4.00;1.07;;;;;;;;;;5052774;28;20942;-83
2023/09/20 03:48:58;;;;;;;4.03;0.83;;;;;;;;;;5053995;28;20398;-81
2023/09/20 03:51:24;;;;;;;4.53;1.00;;;;;;;;;;5053846;28;20916;-81
2023/09/20 03:53:49;;;;;;;6.47;1.10;;;;;;;;;;5054026;28;20175;-83
2023/09/20 03:56:15;;;;;;;3.83;1.43;;;;;;;;;;5053560;28;20694;-85
2023/09/20 03:58:42;;;;;;;3.17;0.70;;;;;;;;;;5052357;28;20508;-85
2023/09/20 04:01:11;;;;;;;5.23;0.90;;;;;;;;;;5052653;28;20421;-82
2023/09/20 04:03:40;;;;;;;3.50;1.30;;;;;;;;;;5053843;28;20180;-85
2023/09/20 04:06:06;;;;;;;2.87;0.87;;;;;;;;;;5053889;28;20443;-82
2023/09/20 04:08:32;;;;;;;4.83;0.53;;;;;;;;;;5053730;28;20417;-80
2023/09/20 04:10:58;;;;;;;5.00;1.20;;;;;;;;;;5053162;28;20471;-81
2023/09/20 04:13:24;;;;;;;4.23;1.97;;;;;;;;;;5053201;28;20244;-81
2023/09/20 04:15:50;;;;;;;2.80;0.90;;;;;;;;;;5053675;28;20417;-81
2023/09/20 04:18:16;;;;;;;4.77;1.03;;;;;;;;;;5053510;28;20418;-80
2023/09/20 04:20:45;;;;;;;4.07;0.50;;;;;;;;;;5052165;28;20945;-81
2023/09/20 04:23:11;;;;;;;4.90;1.23;;;;;;;;;;5053410;28;20690;-82
2023/09/20 04:25:37;;;;;;;3.23;0.83;;;;;;;;;;5053050;28;20421;-82
2023/09/20 04:28:03;;;;;;;5.13;0.87;;;;;;;;;;5053393;28;20237;-84
2023/09/20 04:30:30;;;;;;;6.03;1.40;;;;;;;;;;5053378;28;20173;-80
2023/09/20 04:32:59;;;;;;;2.60;0.60;;;;;;;;;;5053104;28;21013;-82
2023/09/20 04:35:26;;;;;;;3.23;1.10;;;;;;;;;;5053226;28;20408;-82
2023/09/20 04:37:52;;;;;;;3.33;1.30;;;;;;;;;;5053091;28;20517;-82
2023/09/20 04:40:18;;;;;;;4.80;0.60;;;;;;;;;;5052971;28;20421;-82
2023/09/20 04:42:44;;;;;;;5.03;0.80;;;;;;;;;;5052882;28;20777;-82
2023/09/20 04:45:14;;;;;;;3.30;1.43;;;;;;;;;;5053059;28;20176;-84
2023/09/20 04:47:40;;;;;;;3.37;1.20;;;;;;;;;;5053002;28;20414;-82
2023/09/20 04:50:07;;;;;;;1.87;0.87;;;;;;;;;;5053049;28;20469;-81
2023/09/20 04:52:33;;;;;;;3.83;1.40;;;;;;;;;;5051720;28;20514;-83
2023/09/20 04:54:59;;;;;;;4.43;1.07;;;;;;;;;;5052986;28;20407;-84
2023/09/20 04:57:25;;;;;;;2.40;1.03;;;;;;;;;;5052576;28;20914;-82
2023/09/20 04:59:54;;;;;;;2.10;0.70;;;;;;;;;;5052954;28;20774;-81
2023/09/20 05:02:22;;;;;;;4.17;1.20;;;;;;;;;;5052812;28;20935;-83
2023/09/20 05:04:48;;;;;;;6.67;1.63;;;;;;;;;;5052891;28;20406;-82
2023/09/20 05:07:14;;;;;;;8.93;1.23;;;;;;;;;;5052940;28;20426;-82
2023/09/20 05:09:40;;;;;;;4.60;1.23;;;;;;;;;;5052634;28;20463;-83
2023/09/20 05:12:09;;;;;;;4.33;1.40;;;;;;;;;;5051171;28;21003;-81
2023/09/20 05:14:35;;;;;;;5.07;0.97;;;;;;;;;;5052832;28;20515;-82
2023/09/20 05:17:01;;;;;;;5.17;0.97;;;;;;;;;;5052794;28;20423;-84
2023/09/20 05:19:27;;;;;;;3.90;0.80;;;;;;;;;;5053074;28;20169;-82
2023/09/20 05:21:54;;;;;;;2.60;1.50;;;;;;;;;;5052744;28;20444;-82
2023/09/20 05:24:20;;;;;;;4.90;1.60;;;;;;;;;;5052860;28;20420;-84
2023/09/20 05:26:46;;;;;;;6.13;1.70;;;;;;;;;;5054395;28;20417;-89
2023/09/20 05:29:12;;;;;;;4.00;1.00;;;;;;;;;;5055501;28;20191;-85
2023/09/20 05:31:38;;;;;;;2.87;1.10;;;;;;;;;;5056687;28;20418;-82
2023/09/20 05:34:05;;;;;;;4.37;1.13;;;;;;;;;;5056759;28;20176;-83
2023/09/20 05:36:31;;;;;;;3.43;0.90;;;;;;;;;;5056648;28;20163;-86
2023/09/20 05:38:57;;;;;;;4.80;0.87;;;;;;;;;;5055201;28;20913;-83
2023/09/20 05:41:25;;;;;;;4.93;1.03;;;;;;;;;;5056131;28;20406;-83
2023/09/20 05:43:51;;;;;;;8.13;1.10;;;;;;;;;;5056398;28;20620;-79
2023/09/20 05:46:18;;;;;;;9.00;0.60;;;;;;;;;;5056603;28;20416;-84
2023/09/20 05:48:44;;;;;;;2.97;0.47;;;;;;;;;;5056252;28;20435;-83
2023/09/20 05:51:14;;;;;;;4.90;1.27;;;;;;;;;;5056341;28;20400;-82
2023/09/20 05:53:42;;;;;;;3.63;1.20;;;;;;;;;;5056055;28;20465;-83
2023/09/20 05:56:10;;;;;;;5.43;0.90;;;;;;;;;;5055779;28;20407;-86
2023/09/20 05:58:36;;;;;;;5.10;0.90;;;;;;;;;;5056314;28;20411;-83
2023/09/20 06:01:02;;;;;;;3.90;0.93;;;;;;;;;;5055991;28;20446;-83
2023/09/20 06:03:28;;;;;;;5.50;1.13;;;;;;;;;;5055945;28;20416;-83
2023/09/20 06:05:54;;;;;;;4.30;0.83;;;;;;;;;;5055954;28;20770;-83
2023/09/20 06:08:20;;;;;;;3.53;1.00;;;;;;;;;;5054559;28;20435;-81
2023/09/20 06:10:46;;;;;;;4.27;0.83;;;;;;;;;;5055344;28;20593;-81
2023/09/20 06:13:12;;;;;;;4.47;1.00;;;;;;;;;;5055741;28;20531;-83
2023/09/20 06:15:39;;;;;;;5.10;1.00;;;;;;;;;;5055870;28;20449;-83
2023/09/20 06:18:06;;;;;;;5.80;1.10;;;;;;;;;;5055724;28;20443;-82
2023/09/20 06:20:33;;;;;;;2.20;1.00;;;;;;;;;;5055641;28;20778;-83
2023/09/20 06:22:59;;;;;;;6.27;1.17;;;;;;;;;;5055633;28;20418;-83
2023/09/20 06:25:26;;;;;;;4.50;0.97;;;;;;;;;;5055257;28;20431;-83
2023/09/20 06:27:53;;;;;;;4.33;1.03;;;;;;;;;;5055563;28;20420;-82
2023/09/20 06:30:20;;;;;;;5.10;1.07;;;;;;;;;;5055654;28;20451;-84
2023/09/20 06:32:46;;;;;;;6.27;1.03;;;;;;;;;;5055433;28;20904;-85
2023/09/20 06:35:15;;;;;;;3.27;0.60;;;;;;;;;;5055416;28;20419;-82
2023/09/20 06:37:45;;;;;;;2.10;0.50;;;;;;;;;;5054861;28;20412;-85
2023/09/20 06:40:21;;;;;;;3.83;1.00;;;;;;;;;;5055015;28;20407;-86
2023/09/20 06:42:47;;;;;;;5.70;1.00;;;;;;;;;;5055199;28;20493;-83
2023/09/20 06:45:13;;;;;;;2.53;0.80;;;;;;;;;;5055284;28;20439;-84
2023/09/20 06:47:39;;;;;;;2.37;0.73;;;;;;;;;;5055301;28;20183;-81
2023/09/20 06:50:06;;;;;;;4.70;1.03;;;;;;;;;;5055160;28;20176;-82
2023/09/20 06:52:32;;;;;;;4.87;1.53;;;;;;;;;;5054925;28;21039;-83
2023/09/20 06:54:57;;;;;;;5.83;1.53;;;;;;;;;;5054379;28;20419;-83
2023/09/20 06:57:23;;;;;;;4.47;0.80;;;;;;;;;;5055018;28;20435;-82
2023/09/20 06:59:52;;;;;;;6.80;1.23;;;;;;;;;;5055002;28;20239;-81
2023/09/20 07:02:19;;;;;;;3.40;1.07;;;;;;;;;;5054923;28;20423;-83
2023/09/20 07:04:47;;;;;;;5.83;2.73;;;;;;;;;;5054842;28;20411;-84
2023/09/20 07:07:13;;;;;;;6.03;1.10;;;;;;;;;;5054809;28;20900;-85
2023/09/20 07:09:39;;;;;;;5.17;1.10;;;;;;;;;;5054649;28;20509;-84
2023/09/20 07:12:07;;;;;;;4.70;1.23;;;;;;;;;;5054378;28;20200;-82
2023/09/20 07:14:33;;;;;;;5.60;1.50;;;;;;;;;;5054658;28;20442;-85
2023/09/20 07:17:00;;;;;;;6.63;1.30;;;;;;;;;;5054651;28;20405;-85
2023/09/20 07:19:29;;;;;;;8.73;1.27;;;;;;;;;;5054570;28;20419;-85
2023/09/20 07:21:55;;;;;;;5.60;1.07;;;;;;;;;;5054545;28;20768;-83
2023/09/20 07:24:24;;;;;;;10.17;1.90;;;;;;;;;;5054531;28;20443;-82
2023/09/20 07:26:51;;;;;;;3.43;1.07;;;;;;;;;;5052783;28;20860;-84
2023/09/20 07:29:18;;;;;;;8.17;1.70;;;;;;;;;;5054533;28;20429;-85
2023/09/20 07:31:45;;;;;;;2.70;0.70;;;;;;;;;;5054262;28;20415;-83
2023/09/20 07:34:13;;;;;;;3.70;1.17;;;;;;;;;;5053005;28;20450;-82
2023/09/20 07:36:40;;;;;;;5.40;0.80;;;;;;;;;;5049934;28;20437;-84
2023/09/20 07:39:12;;;;;;;5.97;1.23;;;;;;;;;;5034091;28;20435;-81
2023/09/20 07:41:38;;;;;;;6.90;1.20;;;;;;;;;;5033995;28;20419;-84
2023/09/20 07:44:07;;;;;;;3.87;1.07;;;;;;;;;;5034213;28;20428;-79
2023/09/20 07:46:35;;;;;;;6.17;1.10;;;;;;;;;;5032227;28;20412;-79
2023/09/20 07:49:09;;;;;;;3.43;1.30;;;;;;;;;;5033248;28;20436;-81
2023/09/20 07:51:36;;;;;;;4.53;1.13;;;;;;;;;;5045075;28;20413;-82
2023/09/20 07:54:02;;;;;;;1.90;0.70;;;;;;;;;;5053906;28;20420;-82
2023/09/20 07:56:28;;;;;;;2.70;0.87;;;;;;;;;;5053576;28;20405;-84
2023/09/20 07:58:55;;;;;;;2.87;1.40;;;;;;;;;;5053885;28;20421;-83
2023/09/20 08:01:21;;;;;;;3.27;1.00;;;;;;;;;;5053841;28;20628;-84
2023/09/20 08:03:58;;;;;;;1.97;0.63;;;;;;;;;;5053850;28;20419;-83
2023/09/20 08:06:24;;;;;;;3.00;0.87;;;;;;;;;;5053750;28;20413;-84
2023/09/20 08:08:51;;;;;;;7.30;1.80;;;;;;;;;;5053708;28;20833;-84
2023/09/20 08:11:17;;;;;;;2.10;0.53;;;;;;;;;;5053211;28;20491;-81
2023/09/20 08:13:43;;;;;;;3.83;1.00;;;;;;;;;;5053477;28;20471;-83
2023/09/20 08:16:10;;;;;;;5.23;1.47;;;;;;;;;;5052292;28;20426;-81
2023/09/20 08:21:29;;;;;;;3.90;1.27;;;;;;;;;;5053552;28;20406;-83
2023/09/20 09:00:00;;;;;;;1.93;0.47;;;;;;;;;;5045632;28;20403;-82
2023/09/20 09:02:26;;;;;;;4.93;1.20;;;;;;;;;;5051785;28;20408;-83
2023/09/20 09:04:53;;;;;;;2.80;0.80;;;;;;;;;;5051672;28;20757;-82
2023/09/20 09:07:19;;;;;;;5.67;1.40;;;;;;;;;;5051503;28;20404;-81
2023/09/20 09:09:46;;;;;;;2.80;0.47;;;;;;;;;;5051236;28;20466;-84
2023/09/20 09:12:12;;;;;;;4.33;1.43;;;;;;;;;;5050723;28;20464;-85
2023/09/20 09:14:39;;;;;;;1.90;0.50;;;;;;;;;;5051655;28;21002;-80
2023/09/20 09:17:09;;;;;;;3.53;0.80;;;;;;;;;;5051681;28;20404;-83
2023/09/20 09:19:35;;;;;;;3.57;1.80;;;;;;;;;;5051559;28;20420;-81
2023/09/20 09:22:02;;;;;;;2.27;0.87;;;;;;;;;;5051507;28;20423;-81
2023/09/20 09:24:28;;;;;;;4.10;0.83;;;;;;;;;;5051668;28;20404;-82
2023/09/20 09:27:05;;;;;;;4.50;0.73;;;;;;;;;;5050018;28;20428;-81
2023/09/20 09:29:31;;;;;;;3.03;0.90;;;;;;;;;;5051437;28;20170;-79
2023/09/20 09:31:56;;;;;;;5.17;0.77;;;;;;;;;;5051373;28;20524;-80
2023/09/20 09:34:23;;;;;;;5.00;1.10;;;;;;;;;;5051507;28;20247;-80
2023/09/20 09:36:49;;;;;;;5.63;0.97;;;;;;;;;;5051414;28;20174;-81
2023/09/20 09:39:15;;;;;;;4.23;0.60;;;;;;;;;;5051348;28;20416;-82
2023/09/20 09:41:44;;;;;;;4.10;1.47;;;;;;;;;;5051034;28;20752;-82
2023/09/20 09:44:11;;;;;;;1.73;0.50;;;;;;;;;;5050239;28;20423;-78
2023/09/20 09:46:41;;;;;;;4.07;0.93;;;;;;;;;;5051347;28;20466;-80
2023/09/20 09:49:11;;;;;;;6.60;1.17;;;;;;;;;;5050100;28;20511;-82
2023/09/20 09:51:50;;;;;;;2.50;0.63;;;;;;;;;;5051272;28;20412;-83
2023/09/20 09:54:17;;;;;;;3.20;0.67;;;;;;;;;;5051372;28;20407;-82
2023/09/20 09:56:43;;;;;;;3.93;0.70;;;;;;;;;;5050871;28;20412;-83
2023/09/20 09:59:10;;;;;;;4.17;1.10;;;;;;;;;;5051342;28;20409;-83
2023/09/20 10:01:36;;;;;;;2.17;0.77;;;;;;;;;;5051194;28;20420;-83
2023/09/20 10:04:11;;;;;;;2.33;0.77;;;;;;;;;;5051606;28;20400;-80
2023/09/20 10:06:43;;;;;;;2.70;1.10;;;;;;;;;;5051467;28;20411;-81
2023/09/20 10:09:13;;;;;;;3.33;0.50;;;;;;;;;;5051391;28;20450;-81
2023/09/20 10:11:41;;;;;;;4.43;0.93;;;;;;;;;;5051940;28;20803;-82
2023/09/20 10:14:07;;;;;;;3.60;1.00;;;;;;;;;;5055893;28;20986;-82
2023/09/20 10:16:34;;;;;;;2.70;0.70;;;;;;;;;;5055850;28;20479;-82
2023/09/20 10:19:01;;;;;;;3.33;1.50;;;;;;;;;;5055686;28;20504;-81
2023/09/20 10:21:30;;;;;;;6.10;0.90;;;;;;;;;;5055614;28;20418;-83
2023/09/20 10:24:00;;;;;;;2.77;0.83;;;;;;;;;;5055739;28;20437;-81
2023/09/20 10:26:26;;;;;;;5.10;0.73;;;;;;;;;;5055267;28;20412;-78
2023/09/20 10:29:12;;;;;;;5.37;1.27;;;;;;;;;;5055658;28;20408;-80
2023/09/20 10:31:39;;;;;;;5.10;1.03;;;;;;;;;;5047162;28;20499;-82
2023/09/20 10:34:06;;;;;;;6.07;1.37;;;;;;;;;;5055500;28;20925;-81
2023/09/20 10:36:31;;;;;;;3.17;1.37;;;;;;;;;;5055506;28;20416;-82
2023/09/20 10:39:16;;;;;;;5.90;1.20;;;;;;;;;;5055431;28;20420;-79
2023/09/20 10:41:42;;;;;;;2.80;1.20;;;;;;;;;;5055280;28;20268;-82
2023/09/20 10:44:09;;;;;;;4.80;1.47;;;;;;;;;;5055292;28;20534;-81
2023/09/20 10:46:37;;;;;;;2.67;1.00;;;;;;;;;;5054693;28;20311;-82
2023/09/20 10:49:06;;;;;;;5.60;1.23;;;;;;;;;;5054675;28;20423;-86
2023/09/20 10:51:43;;;;;;;5.20;1.87;;;;;;;;;;5054635;28;20396;-86
2023/09/20 10:54:20;;;;;;;4.40;1.47;;;;;;;;;;5047568;28;20512;-82
2023/09/20 10:56:53;;;;;;;4.40;1.63;;;;;;;;;;5052643;28;20512;-80
2023/09/20 10:59:23;;;;;;;3.33;1.20;;;;;;;;;;5053074;28;20416;-82
2023/09/20 11:02:09;;;;;;;3.37;1.70;;;;;;;;;;5053893;28;20412;-83
2023/09/20 11:04:36;;;;;;;6.40;2.30;;;;;;;;;;5052769;28;20550;-81
2023/09/20 11:07:02;;;;;;;4.90;2.00;;;;;;;;;;5053877;28;20499;-82
2023/09/20 11:09:35;;;;;;;4.50;1.60;;;;;;;;;;5053247;28;20805;-82
2023/09/20 11:12:06;;;;;;;6.67;1.27;;;;;;;;;;5053510;28;20550;-81
2023/09/20 11:14:32;;;;;;;4.30;1.40;;;;;;;;;;5048753;28;20850;-83
2023/09/20 11:16:59;;;;;;;7.53;1.80;;;;;;;;;;5032558;28;20417;-84
2023/09/20 11:19:26;;;;;;;3.20;1.00;;;;;;;;;;5033617;28;20421;-82
2023/09/20 11:21:53;;;;;;;3.10;0.93;;;;;;;;;;5045660;28;20407;-85
2023/09/20 11:24:19;;;;;;;3.67;1.00;;;;;;;;;;5052401;28;20550;-82
2023/09/20 11:26:49;;;;;;;2.73;0.73;;;;;;;;;;5052812;28;20788;-82
2023/09/20 11:29:16;;;;;;;3.50;1.43;;;;;;;;;;5052727;28;20270;-85
2023/09/20 11:31:45;;;;;;;3.10;1.40;;;;;;;;;;5051243;28;20485;-83
2023/09/20 11:34:11;;;;;;;4.07;1.13;;;;;;;;;;5052859;28;20454;-84
2023/09/20 11:36:37;;;;;;;2.93;0.90;;;;;;;;;;5052651;28;20897;-85
2023/09/20 11:39:04;;;;;;;3.87;1.20;;;;;;;;;;5052574;28;20170;-86
2023/09/20 11:41:30;;;;;;;2.60;1.20;;;;;;;;;;5052873;28;20503;-90
2023/09/20 11:43:56;;;;;;;3.13;1.50;;;;;;;;;;5048942;28;20539;-83
2023/09/20 11:46:25;;;;;;;3.97;1.03;;;;;;;;;;5052075;28;20961;-82
2023/09/20 11:48:51;;;;;;;2.80;1.27;;;;;;;;;;5052433;28;20492;-86
2023/09/20 11:51:17;;;;;;;2.70;1.00;;;;;;;;;;5049645;28;20503;-83
2023/09/20 11:53:44;;;;;;;4.40;1.60;;;;;;;;;;5052248;28;20295;-85
2023/09/20 11:56:10;;;;;;;6.00;1.40;;;;;;;;;;5051787;28;20497;-81
2023/09/20 11:58:39;;;;;;;4.20;1.27;;;;;;;;;;5052270;28;20416;-83
2023/09/20 12:01:08;;;;;;;4.00;1.40;;;;;;;;;;5052068;28;20488;-84
2023/09/20 12:03:34;;;;;;;3.10;0.90;;;;;;;;;;5052392;28;20408;-86
2023/09/20 12:06:00;;;;;;;4.70;1.20;;;;;;;;;;5052314;28;20427;-84
2023/09/20 12:08:32;;;;;;;2.83;1.20;;;;;;;;;;5052260;28;20412;-84
2023/09/20 12:10:58;;;;;;;2.40;1.40;;;;;;;;;;5049301;28;20460;-84
2023/09/20 12:13:24;;;;;;;4.60;1.37;;;;;;;;;;5052032;28;20479;-81
2023/09/20 12:15:51;;;;;;;3.20;0.87;;;;;;;;;;5052404;28;20466;-84
2023/09/20 12:18:17;;;;;;;3.60;1.40;;;;;;;;;;5050770;28;20412;-85
2023/09/20 12:20:44;;;;;;;2.50;0.93;;;;;;;;;;5050039;28;20442;-85
2023/09/20 12:23:12;;;;;;;5.47;1.97;;;;;;;;;;5052275;28;20604;-84
2023/09/20 12:25:39;;;;;;;3.20;1.50;;;;;;;;;;5051921;28;20900;-83
2023/09/20 12:28:05;;;;;;;4.00;1.70;;;;;;;;;;5052359;28;20404;-84
2023/09/20 12:30:31;;;;;;;3.33;1.40;;;;;;;;;;5052217;28;20423;-83
2023/09/20 12:32:58;;;;;;;2.93;1.30;;;;;;;;;;5052041;28;20471;-83
2023/09/20 12:35:24;;;;;;;2.63;1.60;;;;;;;;;;5052185;28;20260;-82
2023/09/20 12:37:51;;;;;;;2.70;1.77;;;;;;;;;;5030020;28;20615;-83
2023/09/20 12:40:19;;;;;;;4.90;1.77;;;;;;;;;;5031279;28;20178;-83
2023/09/20 12:42:45;;;;;;;2.50;1.23;;;;;;;;;;5032774;28;20401;-82
2023/09/20 12:45:10;;;;;;;2.80;1.30;;;;;;;;;;5048621;28;20976;-85
2023/09/20 12:47:41;;;;;;;4.60;2.27;;;;;;;;;;5053046;28;20177;-82
2023/09/20 12:50:08;;;;;;;2.90;2.10;;;;;;;;;;5052704;28;20173;-86
2023/09/20 12:52:34;;;;;;;2.20;1.07;;;;;;;;;;5068288;28;20540;-84
2023/09/20 12:55:00;;;;;;;4.10;1.57;;;;;;;;;;5052620;28;20896;-85
2023/09/20 12:57:26;;;;;;;3.80;1.53;;;;;;;;;;5052989;28;20170;-83
2023/09/20 12:59:53;;;;;;;5.13;1.63;;;;;;;;;;5052886;28;20404;-83
2023/09/20 13:02:18;;;;;;;4.70;1.33;;;;;;;;;;5052784;28;20464;-85
2023/09/20 13:04:47;;;;;;;4.90;1.83;;;;;;;;;;5053172;28;20415;-90
2023/09/20 13:07:13;;;;;;;3.60;1.00;;;;;;;;;;5052791;28;20173;-83
2023/09/20 13:09:42;;;;;;;4.33;1.20;;;;;;;;;;5052259;28;20528;-84
2023/09/20 13:12:08;;;;;;;2.60;1.37;;;;;;;;;;5052651;28;20433;-81
2023/09/20 13:14:34;;;;;;;4.00;1.27;;;;;;;;;;5052798;28;20412;-83
2023/09/20 13:17:00;;;;;;;5.70;1.60;;;;;;;;;;5052440;28;20980;-84
2023/09/20 13:19:26;;;;;;;2.97;1.10;;;;;;;;;;5041250;28;20240;-83
2023/09/20 13:21:52;;;;;;;3.43;1.77;;;;;;;;;;5043540;28;20429;-81
2023/09/20 13:24:18;;;;;;;3.40;1.40;;;;;;;;;;5032166;28;20269;-85
2023/09/20 13:26:44;;;;;;;5.73;1.30;;;;;;;;;;5032606;28;20629;-81
2023/09/20 13:29:13;;;;;;;2.97;1.30;;;;;;;;;;5032726;28;20212;-81
2023/09/20 13:31:40;;;;;;;7.00;1.63;;;;;;;;;;5032653;28;20498;-82
2023/09/20 13:34:14;;;;;;;5.20;1.67;;;;;;;;;;5032602;28;20409;-83
2023/09/20 13:36:40;;;;;;;3.80;1.90;;;;;;;;;;5032701;28;20414;-81
2023/09/20 13:39:05;;;;;;;3.03;1.93;;;;;;;;;;5032317;28;20409;-82
2023/09/20 13:41:31;;;;;;;2.57;1.50;;;;;;;;;;5032649;28;20413;-81
2023/09/20 13:43:58;;;;;;;3.87;2.00;;;;;;;;;;5032567;28;20567;-82
2023/09/20 13:46:25;;;;;;;2.40;1.40;;;;;;;;;;5032447;28;20177;-84
2023/09/20 13:48:51;;;;;;;2.50;1.93;;;;;;;;;;5036164;28;20471;-81
2023/09/20 13:51:17;;;;;;;3.80;1.27;;;;;;;;;;5036331;28;20496;-81
2023/09/20 13:53:44;;;;;;;3.53;1.43;;;;;;;;;;5036262;28;20409;-82
2023/09/20 13:56:11;;;;;;;2.80;1.13;;;;;;;;;;5036044;28;20409;-81
2023/09/20 13:58:37;;;;;;;3.40;1.47;;;;;;;;;;5036170;28;20458;-82
2023/09/20 14:01:05;;;;;;;4.37;2.03;;;;;;;;;;5036068;28;20405;-81
2023/09/20 14:03:33;;;;;;;6.13;2.07;;;;;;;;;;5036215;28;20217;-82
2023/09/20 14:06:01;;;;;;;3.87;1.27;;;;;;;;;;5036063;28;20817;-81
2023/09/20 14:08:27;;;;;;;4.17;1.30;;;;;;;;;;5036419;28;20428;-79
2023/09/20 14:10:53;;;;;;;3.30;1.27;;;;;;;;;;5043799;28;21031;-83
2023/09/20 14:13:19;;;;;;;3.50;1.57;;;;;;;;;;5055607;28;20185;-83
2023/09/20 14:15:45;;;;;;;2.87;1.90;;;;;;;;;;5055505;28;20408;-82
2023/09/20 14:18:11;;;;;;;2.07;1.17;;;;;;;;;;5055410;28;20501;-84
2023/09/20 14:20:39;;;;;;;3.10;1.50;;;;;;;;;;5055366;28;20893;-83
2023/09/20 14:23:04;;;;;;;2.87;1.10;;;;;;;;;;5055248;28;20209;-86
2023/09/20 14:25:30;;;;;;;2.40;1.37;;;;;;;;;;5055055;28;20418;-84
2023/09/20 14:27:57;;;;;;;2.40;0.90;;;;;;;;;;5054019;28;20413;-84
2023/09/20 14:30:23;;;;;;;2.70;1.33;;;;;;;;;;5055241;28;20415;-83
2023/09/20 14:32:53;;;;;;;2.40;1.53;;;;;;;;;;5052983;28;20428;-83
2023/09/20 14:35:19;;;;;;;3.53;1.80;;;;;;;;;;5054997;28;20416;-88
2023/09/20 14:37:47;;;;;;;3.63;1.73;;;;;;;;;;5055220;28;20405;-80
2023/09/20 14:40:34;;;;;;;23.50;4.37;;;;;;;;;;5054894;28;20264;-82
2023/09/20 14:42:59;;;;;;;3.10;1.20;;;;;;;;;;5054208;28;20467;-83
2023/09/20 14:45:27;;;;;;;3.90;2.10;;;;;;;;;;5054868;28;20499;-80
2023/09/20 14:47:54;;;;;;;8.13;1.67;;;;;;;;;;5054898;28;20169;-80
2023/09/20 14:50:21;;;;;;;3.40;1.00;;;;;;;;;;5054862;28;20775;-82
2023/09/20 14:52:47;;;;;;;2.50;0.93;;;;;;;;;;5054707;28;20554;-86
2023/09/20 14:55:15;;;;;;;7.00;1.67;;;;;;;;;;5054455;28;20415;-86
2023/09/20 14:57:44;;;;;;;4.80;2.03;;;;;;;;;;5054252;28;20416;-90
2023/09/20 15:00:17;;;;;;;6.43;1.80;;;;;;;;;;5054692;28;20520;-84
2023/09/20 15:02:46;;;;;;;3.77;1.47;;;;;;;;;;5054809;28;20451;-83
2023/09/20 15:05:17;;;;;;;6.47;1.30;;;;;;;;;;5054315;28;20424;-79
2023/09/20 15:07:43;;;;;;;3.17;1.43;;;;;;;;;;5054588;28;20396;-83
2023/09/20 15:10:16;;;;;;;3.20;1.30;;;;;;;;;;5053925;28;20974;-81
2023/09/20 15:12:42;;;;;;;3.67;1.60;;;;;;;;;;5054350;28;20440;-82
2023/09/20 15:15:08;;;;;;;4.43;1.43;;;;;;;;;;5054333;28;20420;-83
2023/09/20 15:17:37;;;;;;;3.00;1.67;;;;;;;;;;5054483;28;20418;-83
2023/09/20 15:20:05;;;;;;;4.10;1.30;;;;;;;;;;5054372;28;20416;-82
2023/09/20 15:22:31;;;;;;;2.30;1.07;;;;;;;;;;5052906;28;21146;-81